Los Angeles, CA

5:47 PM PDT on August 01, 2015 (GMT -0700)
Lake Hollywood | | Change Station
CLOSE
Current Station
Personal Weather Station
Location: Los Angeles, CA
Elevation: 919 ft
Nearby Weather Stations

Elev 919 ft 34.13 °N, 118.33 °W | Updated 53 days ago

Clear
Clear
82 °F
Feels Like 83 °F
N
9
Wind Variable Wind from South
Gusts mph

Today
High -- | Low -- °F
--% Chance of Precip.
Yesterday
High -- | Low -- °F
Precip. -- in
6:04 AM 7:54 PM
Waning Gibbous, 96% visible
Pressure 29.85 in
Visibility 10.0 miles
Clouds Clear
Heat Index 83 °F
Dew Point 62 °F
Humidity 50%
Rainfall in
Snow Depth Not available.
UV 4 out of 12
Pollen 3.30 out of 12
Air Quality Not available.
Flu Activity Not available.
METAR KBUR 012353Z 18009KT 10SM CLR 29/17 A2989 RMK AO2 SLP107 T02890167 10311 20250 56009 $

More Conditions Fewer Conditions

Pressure 29.85 in
Visibility 10.0 miles
Clouds Clear
Heat Index 83 °F
Dew Point 62 °F
Humidity 50%
Rainfall in
Snow Depth Not available.
UV 4 out of 12
Pollen 3.30 out of 12
Air Quality Not available.
Flu Activity Not available.
METAR KBUR 012353Z 18009KT 10SM CLR 29/17 A2989 RMK AO2 SLP107 T02890167 10311 20250 56009 $

More Conditions Fewer Conditions

10-Day Weather Forecast

×

Almanac

Astronomy

Aug. 01, 2015 Rise Set
Actual Time
Civil Twilight
Nautical Twilight
Astronomical Twilight
Moon
Length of Visible Light
Length of Day
Tomorrow will be .
, % of the Moon is Illuminated

Today's Extremes

State Highs State Lows

Community

WunderPhotos

Upload Photos

1,843,102 photos uploaded!

WunderBlogs® & News

Nearby

Air Quality

  Air Quality AQ Index Pollutant
Not available.

Snow Depth

Station Depth Elevation

Earthquake Activity

City Distance Mag. Time & Date
Minimum magnitude displayed is 2.5.

Coastal Water Temperatures

Place Temperature

Stations

Nearby Weather Stations

Station Location Temp. Windchill Dew Point Humidity Wind Precip. Elev Updated Type